Flight Track Log - Related Links

Times and Time Zones

All times are in EDT time to prevent confusion due to time zone crossing. See the CTL17 flight status page for this flight to view local times or setup timezone preferences in your user account.


Time Position Orientation Groundspeed Altitude Reporting Facility
EDT Latitude Longitude Course Direction KTS MPH feet Rate Location/Type
Tue 03:57:31 PM 42.6653 -83.4069 49° Northeast 105 121 1,500  Level Cleveland Center
Tue 03:58:33 PM 42.6847 -83.3767 49° Northeast 137 158 2,400 837 Climbing Cleveland Center
Tue 03:59:40 PM 42.7267 -83.3644 12° North 153 176 3,300 806 Climbing Cleveland Center
Tue 04:01:00 PM 42.7722 -83.3796 346° North  Level FlightAware Approximate
Tue 04:08:00 PM 42.9969 -83.4732 321° Northwest  Level FlightAware Approximate
Tue 04:09:00 PM 43.0243 -83.5034 321° Northwest  Level FlightAware Approximate
Tue 04:10:00 PM 43.0517 -83.5337 321° Northwest  Level FlightAware Approximate
Tue 04:11:00 PM 43.0790 -83.5639 321° Northwest  Level FlightAware Approximate
Tue 04:12:00 PM 43.1064 -83.5942 321° Northwest  Level FlightAware Approximate
Tue 04:13:00 PM 43.1337 -83.6245 321° Northwest  Level FlightAware Approximate
Tue 04:14:00 PM 43.1611 -83.6549 321° Northwest  Level FlightAware Approximate
Tue 04:15:00 PM 43.1884 -83.6852 321° Northwest  Level FlightAware Approximate
Tue 04:16:00 PM 43.2157 -83.7156 321° Northwest  Level FlightAware Approximate
Tue 04:17:00 PM 43.2421 -83.7476 318° Northwest  Level FlightAware Approximate
Tue 04:18:00 PM 43.2684 -83.7797 318° Northwest  Level FlightAware Approximate
Tue 04:19:00 PM 43.2947 -83.8118 318° Northwest  Level FlightAware Approximate
Tue 04:20:00 PM 43.3209 -83.8440 318° Northwest  Level FlightAware Approximate
Tue 04:21:00 PM 43.3472 -83.8761 318° Northwest  Level FlightAware Approximate
Tue 04:22:00 PM 43.3741 -83.9074 324° Northwest  Level FlightAware Approximate
Tue 04:23:00 PM 43.4025 -83.9358 324° Northwest  Level FlightAware Approximate
Tue 04:24:00 PM 43.4310 -83.9642 324° Northwest  Level FlightAware Approximate
Tue 04:25:00 PM 43.4595 -83.9927 324° Northwest  Level FlightAware Approximate
Tue 04:26:00 PM 43.4879 -84.0212 324° Northwest  Level FlightAware Approximate
Tue 04:27:00 PM 43.5115 -84.0563 305° West  Level FlightAware Approximate
Tue 04:28:00 PM 43.5167 -84.0667 305° West  Level FlightAware Approximate

Login

Don't have an account? Register now (free) for customized features, flight alerts, and more!